Time;durP1;ratioP1;P1;durP2;ratioP2;P2;SDS_P1;SDS_P2;PMS_P1;PMS_P2;Temp;Humidity;BMP_temperature;BMP_pressure;BME280_temperature;BME280_humidity;BME280_pressure;Samples;Min_cycle;Max_cycle;Signal;HPM_P1;HPM_P2
2021/01/21 00:02:24;;;;;;;55.77;12.67;;;;;;;;;;5087379;28;20232;-72
2021/01/21 00:05:29;;;;;;;61.60;12.43;;;;;;;;;;5088837;28;20297;-72
2021/01/21 00:08:34;;;;;;;40.60;12.53;;;;;;;;;;5089652;28;20230;-72
2021/01/21 00:11:39;;;;;;;98.97;13.43;;;;;;;;;;5093928;28;20221;-72
2021/01/21 00:14:45;;;;;;;67.00;12.60;;;;;;;;;;5090259;28;20645;-72
2021/01/21 00:17:49;;;;;;;97.33;14.47;;;;;;;;;;5087880;28;20205;-72
2021/01/21 00:20:54;;;;;;;70.53;13.13;;;;;;;;;;5094805;28;20717;-72
2021/01/21 00:23:59;;;;;;;89.47;14.23;;;;;;;;;;5094728;28;20545;-72
2021/01/21 00:27:04;;;;;;;189.67;16.27;;;;;;;;;;5081621;28;20793;-73
2021/01/21 00:30:11;;;;;;;201.40;15.23;;;;;;;;;;5094400;28;20232;-73
2021/01/21 00:33:15;;;;;;;177.50;15.33;;;;;;;;;;5087174;28;20271;-73
2021/01/21 00:36:20;;;;;;;35.10;11.43;;;;;;;;;;5102307;28;20250;-72
2021/01/21 00:39:25;;;;;;;65.33;11.77;;;;;;;;;;5086418;28;20677;-72
2021/01/21 00:42:30;;;;;;;159.87;15.03;;;;;;;;;;5089694;28;20331;-71
2021/01/21 00:45:35;;;;;;;81.27;13.77;;;;;;;;;;5086788;28;20262;-72
2021/01/21 00:48:41;;;;;;;59.33;12.53;;;;;;;;;;5094199;28;20297;-73
2021/01/21 00:51:46;;;;;;;69.83;13.00;;;;;;;;;;5082033;28;20273;-73
2021/01/21 00:54:50;;;;;;;45.30;11.43;;;;;;;;;;5089304;28;20298;-73
2021/01/21 00:57:55;;;;;;;51.53;12.37;;;;;;;;;;5089361;28;20319;-73
2021/01/21 01:01:01;;;;;;;64.23;12.90;;;;;;;;;;5095007;28;20222;-73
2021/01/21 01:04:06;;;;;;;88.00;12.90;;;;;;;;;;5100386;28;20266;-73
2021/01/21 01:07:15;;;;;;;204.87;15.53;;;;;;;;;;5093444;28;20218;-73
2021/01/21 01:10:21;;;;;;;114.40;13.77;;;;;;;;;;5095206;28;20209;-73
2021/01/21 01:13:25;;;;;;;177.13;16.33;;;;;;;;;;5101641;28;20709;-73
2021/01/21 01:16:33;;;;;;;106.53;13.50;;;;;;;;;;5094345;28;20192;-73
2021/01/21 01:19:42;;;;;;;256.73;17.00;;;;;;;;;;5093232;28;20320;-73
2021/01/21 01:22:50;;;;;;;207.00;15.60;;;;;;;;;;5088792;28;20229;-73
2021/01/21 01:25:55;;;;;;;123.73;13.60;;;;;;;;;;5088748;28;20221;-72
2021/01/21 01:28:59;;;;;;;131.77;13.40;;;;;;;;;;5098911;28;20205;-72
2021/01/21 01:32:05;;;;;;;185.10;15.07;;;;;;;;;;5093449;28;20218;-72
2021/01/21 01:35:18;;;;;;;124.90;14.80;;;;;;;;;;5086871;28;20669;-73
2021/01/21 01:38:24;;;;;;;121.10;13.77;;;;;;;;;;5091849;28;20188;-72
2021/01/21 01:41:29;;;;;;;101.30;13.03;;;;;;;;;;5086576;28;20226;-73
2021/01/21 01:44:34;;;;;;;88.93;12.80;;;;;;;;;;5087951;28;20194;-73
2021/01/21 01:47:42;;;;;;;160.57;12.83;;;;;;;;;;5093342;28;20225;-73
2021/01/21 01:50:47;;;;;;;79.30;11.77;;;;;;;;;;5087896;28;20300;-73
2021/01/21 01:53:59;;;;;;;91.07;12.73;;;;;;;;;;5093919;28;20212;-73
2021/01/21 01:57:07;;;;;;;123.80;12.53;;;;;;;;;;5095368;28;20202;-73
2021/01/21 02:00:15;;;;;;;100.80;12.27;;;;;;;;;;5105844;28;20194;-72
2021/01/21 02:03:28;;;;;;;170.20;14.30;;;;;;;;;;5095752;28;20303;-73
2021/01/21 02:06:50;;;;;;;80.03;12.80;;;;;;;;;;5079281;28;20260;-73
2021/01/21 02:09:55;;;;;;;110.63;13.47;;;;;;;;;;5090416;28;20208;-73
2021/01/21 02:13:21;;;;;;;96.73;12.70;;;;;;;;;;5098938;28;20262;-73
2021/01/21 02:16:32;;;;;;;79.30;13.50;;;;;;;;;;5092703;28;20208;-72
2021/01/21 02:19:55;;;;;;;99.50;12.43;;;;;;;;;;5079654;28;20259;-73
2021/01/21 02:23:33;;;;;;;115.67;13.67;;;;;;;;;;5086438;28;20732;-71
2021/01/21 02:26:46;;;;;;;139.53;13.03;;;;;;;;;;5086594;28;20260;-73
2021/01/21 02:29:51;;;;;;;131.90;12.50;;;;;;;;;;5098819;28;20231;-73
2021/01/21 02:33:08;;;;;;;122.37;13.23;;;;;;;;;;5087395;28;20232;-73
2021/01/21 02:36:16;;;;;;;85.67;12.20;;;;;;;;;;5097444;28;20692;-71
2021/01/21 02:39:22;;;;;;;77.97;11.90;;;;;;;;;;5090591;28;20216;-73
2021/01/21 02:42:45;;;;;;;92.50;11.77;;;;;;;;;;5085124;28;20277;-73
2021/01/21 02:45:53;;;;;;;53.73;10.93;;;;;;;;;;5088051;28;20241;-74
2021/01/21 02:48:59;;;;;;;56.47;11.07;;;;;;;;;;5080728;28;20234;-73
2021/01/21 02:52:12;;;;;;;55.33;10.60;;;;;;;;;;5087190;28;20229;-73
2021/01/21 02:55:23;;;;;;;45.17;10.70;;;;;;;;;;5086759;28;20635;-75
2021/01/21 02:58:36;;;;;;;31.17;9.97;;;;;;;;;;5088331;28;20640;-73
2021/01/21 03:01:47;;;;;;;60.67;11.90;;;;;;;;;;5082195;28;20795;-74
2021/01/21 03:04:53;;;;;;;36.60;10.47;;;;;;;;;;5101609;28;20213;-73
2021/01/21 03:07:59;;;;;;;62.47;12.13;;;;;;;;;;5078548;28;20315;-74
2021/01/21 03:11:08;;;;;;;48.00;11.10;;;;;;;;;;5087466;28;20332;-74
2021/01/21 03:14:13;;;;;;;50.17;11.67;;;;;;;;;;5095529;28;20241;-74
2021/01/21 03:17:24;;;;;;;44.50;11.50;;;;;;;;;;5087216;28;20279;-74
2021/01/21 03:20:40;;;;;;;68.13;10.80;;;;;;;;;;5086689;28;20225;-74
2021/01/21 03:23:48;;;;;;;46.97;11.83;;;;;;;;;;5097013;28;20568;-74
2021/01/21 03:27:01;;;;;;;43.27;11.10;;;;;;;;;;5078229;28;20255;-73
2021/01/21 03:30:09;;;;;;;52.40;11.20;;;;;;;;;;5079722;28;20569;-74
2021/01/21 03:33:14;;;;;;;53.77;11.47;;;;;;;;;;5090440;28;20227;-74
2021/01/21 03:36:25;;;;;;;35.33;10.17;;;;;;;;;;5087871;28;20201;-71
2021/01/21 03:39:34;;;;;;;34.47;10.97;;;;;;;;;;5100474;28;20297;-73
2021/01/21 03:42:51;;;;;;;54.00;14.20;;;;;;;;;;5083289;28;20329;-75
2021/01/21 03:46:30;;;;;;;63.17;14.00;;;;;;;;;;5108204;28;20641;-75
2021/01/21 03:49:35;;;;;;;69.67;13.93;;;;;;;;;;5090529;28;20268;-74
2021/01/21 03:52:50;;;;;;;100.87;14.40;;;;;;;;;;5090801;28;20237;-73
2021/01/21 03:56:06;;;;;;;99.33;15.93;;;;;;;;;;5090604;28;20251;-75
2021/01/21 03:59:11;;;;;;;73.97;16.03;;;;;;;;;;5092005;28;20213;-75
2021/01/21 04:02:22;;;;;;;92.77;15.00;;;;;;;;;;5101369;28;20272;-75
2021/01/21 04:05:46;;;;;;;52.37;12.00;;;;;;;;;;5093876;28;20230;-75
2021/01/21 04:08:52;;;;;;;40.60;11.33;;;;;;;;;;5081987;28;20292;-75
2021/01/21 04:12:12;;;;;;;63.27;12.67;;;;;;;;;;5090866;28;20223;-75
2021/01/21 04:15:17;;;;;;;39.17;11.83;;;;;;;;;;5100276;28;20224;-75
2021/01/21 04:18:24;;;;;;;46.70;12.50;;;;;;;;;;5098571;28;20593;-74
2021/01/21 04:21:41;;;;;;;41.60;12.67;;;;;;;;;;5093744;28;20237;-75
2021/01/21 04:24:55;;;;;;;47.37;11.83;;;;;;;;;;5081921;28;20205;-75
2021/01/21 04:28:11;;;;;;;47.83;12.00;;;;;;;;;;5081559;28;20244;-75
2021/01/21 04:31:20;;;;;;;65.27;12.80;;;;;;;;;;5089565;28;20591;-74
2021/01/21 04:34:25;;;;;;;73.50;12.00;;;;;;;;;;5096536;28;20193;-75
2021/01/21 04:37:31;;;;;;;34.37;11.30;;;;;;;;;;5097743;28;20197;-75
2021/01/21 04:40:49;;;;;;;65.53;11.90;;;;;;;;;;5094271;28;20294;-75
2021/01/21 04:44:23;;;;;;;30.77;10.07;;;;;;;;;;5106326;28;20293;-75
2021/01/21 04:47:37;;;;;;;36.57;11.17;;;;;;;;;;5090172;28;20253;-75
2021/01/21 04:50:55;;;;;;;61.70;12.07;;;;;;;;;;5087828;28;20238;-75
2021/01/21 04:54:07;;;;;;;55.10;12.27;;;;;;;;;;5101023;28;20208;-74
2021/01/21 04:57:40;;;;;;;56.93;11.43;;;;;;;;;;5100309;28;20181;-75
2021/01/21 05:00:54;;;;;;;72.60;11.73;;;;;;;;;;5100157;28;20274;-75
2021/01/21 05:03:59;;;;;;;60.03;11.50;;;;;;;;;;5096997;28;20684;-75
2021/01/21 05:07:40;;;;;;;40.93;11.93;;;;;;;;;;5111057;28;20247;-75
2021/01/21 05:10:46;;;;;;;71.07;12.67;;;;;;;;;;5080655;28;20272;-74
2021/01/21 05:13:59;;;;;;;48.20;12.17;;;;;;;;;;5080556;28;20230;-75
2021/01/21 05:17:43;;;;;;;34.30;11.77;;;;;;;;;;5109389;28;20323;-74
2021/01/21 05:20:48;;;;;;;45.03;11.50;;;;;;;;;;5103778;28;20204;-75
2021/01/21 05:24:11;;;;;;;42.37;11.43;;;;;;;;;;5111469;28;20276;-75
2021/01/21 05:27:45;;;;;;;40.77;12.17;;;;;;;;;;5117362;28;20217;-74
2021/01/21 05:31:19;;;;;;;39.87;11.77;;;;;;;;;;5113912;28;20287;-75
2021/01/21 05:34:27;;;;;;;30.93;11.17;;;;;;;;;;5090609;28;20213;-75
2021/01/21 05:37:48;;;;;;;41.10;11.90;;;;;;;;;;5099296;28;20564;-75
2021/01/21 05:41:12;;;;;;;58.77;12.10;;;;;;;;;;5105602;28;20671;-75
2021/01/21 05:44:37;;;;;;;39.47;12.00;;;;;;;;;;5102026;28;20188;-75
2021/01/21 05:47:55;;;;;;;41.83;12.20;;;;;;;;;;5082716;28;20253;-75
2021/01/21 05:51:02;;;;;;;44.03;11.43;;;;;;;;;;5094936;28;20684;-74
2021/01/21 05:54:07;;;;;;;29.00;10.90;;;;;;;;;;5088557;28;20201;-76
2021/01/21 05:57:23;;;;;;;31.00;10.23;;;;;;;;;;5096632;28;20202;-75
2021/01/21 06:00:32;;;;;;;30.87;10.63;;;;;;;;;;5089715;28;20279;-75
2021/01/21 06:03:44;;;;;;;28.80;9.70;;;;;;;;;;5091734;28;20216;-75
2021/01/21 06:07:01;;;;;;;28.37;10.40;;;;;;;;;;5091668;28;20638;-75
2021/01/21 06:10:07;;;;;;;35.67;11.03;;;;;;;;;;5099409;28;20193;-75
2021/01/21 06:13:15;;;;;;;28.57;10.83;;;;;;;;;;5107176;28;20232;-75
2021/01/21 06:16:22;;;;;;;31.93;11.07;;;;;;;;;;5096592;28;20653;-75
2021/01/21 06:19:27;;;;;;;26.57;10.10;;;;;;;;;;5091056;28;20236;-75
2021/01/21 06:22:40;;;;;;;27.17;10.40;;;;;;;;;;5079906;28;20302;-75
2021/01/21 06:25:47;;;;;;;25.10;9.63;;;;;;;;;;5080486;28;20217;-75
2021/01/21 06:28:55;;;;;;;27.97;10.60;;;;;;;;;;5084669;28;20692;-75
2021/01/21 06:32:02;;;;;;;27.27;10.47;;;;;;;;;;5088608;28;20314;-75
2021/01/21 06:35:07;;;;;;;32.67;10.63;;;;;;;;;;5090370;28;20210;-74
2021/01/21 06:38:15;;;;;;;28.73;10.87;;;;;;;;;;5086564;28;20197;-75
2021/01/21 06:41:21;;;;;;;29.50;11.47;;;;;;;;;;5102929;28;20215;-74
2021/01/21 06:44:25;;;;;;;27.93;11.23;;;;;;;;;;5090674;28;20272;-75
2021/01/21 06:47:31;;;;;;;34.20;11.20;;;;;;;;;;5080074;28;20898;-75
2021/01/21 06:50:36;;;;;;;31.23;11.20;;;;;;;;;;5105007;28;20216;-73
2021/01/21 06:53:44;;;;;;;27.03;12.70;;;;;;;;;;5085561;28;20259;-71
2021/01/21 06:56:48;;;;;;;22.23;9.37;;;;;;;;;;5092132;28;20634;-73
2021/01/21 06:59:53;;;;;;;21.60;9.30;;;;;;;;;;5095267;28;20209;-73
2021/01/21 07:02:58;;;;;;;26.13;10.43;;;;;;;;;;5083599;28;20271;-73
2021/01/21 07:06:03;;;;;;;25.07;11.13;;;;;;;;;;5099351;28;20224;-73
2021/01/21 07:09:09;;;;;;;21.67;8.67;;;;;;;;;;5079599;28;20202;-72
2021/01/21 07:12:16;;;;;;;23.20;9.70;;;;;;;;;;5086661;28;20887;-72
2021/01/21 07:15:29;;;;;;;23.97;9.63;;;;;;;;;;5082457;28;20202;-73
2021/01/21 07:18:34;;;;;;;16.80;7.63;;;;;;;;;;5092143;28;20223;-72
2021/01/21 07:21:52;;;;;;;16.37;7.03;;;;;;;;;;5110448;28;20224;-72
2021/01/21 07:24:58;;;;;;;17.10;6.77;;;;;;;;;;5089953;28;20665;-72
2021/01/21 07:28:09;;;;;;;18.73;7.73;;;;;;;;;;5102972;28;20300;-74
2021/01/21 07:31:14;;;;;;;18.40;7.90;;;;;;;;;;5091512;28;20336;-72
2021/01/21 07:34:22;;;;;;;22.33;8.93;;;;;;;;;;5112270;28;20203;-73
2021/01/21 07:37:28;;;;;;;16.90;7.90;;;;;;;;;;5082918;28;20324;-74
2021/01/21 07:40:43;;;;;;;18.07;7.37;;;;;;;;;;5090775;28;20735;-73
2021/01/21 07:43:55;;;;;;;19.50;7.73;;;;;;;;;;5091458;28;21421;-73
2021/01/21 07:47:24;;;;;;;16.07;7.47;;;;;;;;;;5095127;28;20359;-72
2021/01/21 07:50:32;;;;;;;15.87;7.23;;;;;;;;;;5099794;28;20248;-74
2021/01/21 07:53:37;;;;;;;15.60;6.57;;;;;;;;;;5082272;28;20244;-75
2021/01/21 07:56:42;;;;;;;22.70;12.63;;;;;;;;;;5084630;28;20213;-74
2021/01/21 07:59:59;;;;;;;16.50;7.33;;;;;;;;;;5093342;28;20224;-74
2021/01/21 08:03:05;;;;;;;14.63;5.93;;;;;;;;;;5099797;28;21404;-75
2021/01/21 08:06:11;;;;;;;14.97;7.57;;;;;;;;;;5093586;28;20297;-75
2021/01/21 08:09:20;;;;;;;16.83;7.93;;;;;;;;;;5105353;28;20286;-74
2021/01/21 08:12:26;;;;;;;22.87;9.17;;;;;;;;;;5090277;28;20354;-75
2021/01/21 08:15:32;;;;;;;29.00;11.50;;;;;;;;;;5103982;28;20201;-74
2021/01/21 08:18:36;;;;;;;28.20;10.20;;;;;;;;;;5084319;28;20208;-73
2021/01/21 08:21:41;;;;;;;21.80;8.73;;;;;;;;;;5099164;28;20228;-73
2021/01/21 08:24:58;;;;;;;18.77;8.23;;;;;;;;;;5082137;28;20619;-75
2021/01/21 08:28:04;;;;;;;18.67;7.97;;;;;;;;;;5112377;28;20727;-73
2021/01/21 08:31:09;;;;;;;30.70;12.63;;;;;;;;;;5096488;28;20705;-74
2021/01/21 08:34:16;;;;;;;29.83;12.57;;;;;;;;;;5115998;27;21073;-74
2021/01/21 08:37:21;;;;;;;25.63;10.00;;;;;;;;;;5094223;28;20247;-74
2021/01/21 08:40:26;;;;;;;24.77;10.43;;;;;;;;;;5104941;28;20209;-74
2021/01/21 08:43:32;;;;;;;21.97;9.27;;;;;;;;;;5093902;28;20759;-74
2021/01/21 08:46:36;;;;;;;23.47;8.33;;;;;;;;;;5093062;28;20209;-74
2021/01/21 08:49:40;;;;;;;32.60;11.80;;;;;;;;;;5106056;28;20265;-75
2021/01/21 08:53:01;;;;;;;27.70;11.77;;;;;;;;;;5080788;28;20728;-75
2021/01/21 08:56:14;;;;;;;22.23;10.57;;;;;;;;;;5108523;27;20235;-72
2021/01/21 08:59:29;;;;;;;21.63;10.13;;;;;;;;;;5124636;27;20204;-73
2021/01/21 09:02:41;;;;;;;27.37;12.27;;;;;;;;;;5093478;27;20725;-73
2021/01/21 09:05:56;;;;;;;23.27;10.10;;;;;;;;;;5096775;28;20949;-73
2021/01/21 09:09:02;;;;;;;24.10;10.57;;;;;;;;;;5081401;28;20226;-74
2021/01/21 09:12:17;;;;;;;29.80;12.23;;;;;;;;;;5086177;28;20596;-75
2021/01/21 09:15:22;;;;;;;26.23;11.43;;;;;;;;;;5091684;27;20193;-74
2021/01/21 09:18:27;;;;;;;44.60;18.67;;;;;;;;;;5100607;28;20204;-74
2021/01/21 09:21:32;;;;;;;26.10;11.80;;;;;;;;;;5099849;28;20232;-73
2021/01/21 09:24:54;;;;;;;22.33;10.40;;;;;;;;;;5082231;28;20210;-74
2021/01/21 09:28:00;;;;;;;25.20;10.80;;;;;;;;;;5080542;28;20226;-73
2021/01/21 09:31:05;;;;;;;33.43;13.17;;;;;;;;;;5084694;28;20193;-73
2021/01/21 09:34:10;;;;;;;21.37;10.50;;;;;;;;;;5089527;28;20193;-73
2021/01/21 09:37:14;;;;;;;24.57;10.37;;;;;;;;;;5100459;28;20265;-74
2021/01/21 09:40:20;;;;;;;20.10;10.47;;;;;;;;;;5081597;28;20267;-75
2021/01/21 09:43:24;;;;;;;23.87;11.37;;;;;;;;;;5080536;28;20304;-75
2021/01/21 09:46:30;;;;;;;19.63;9.93;;;;;;;;;;5079946;28;20883;-74
2021/01/21 09:49:35;;;;;;;24.20;11.70;;;;;;;;;;5079733;28;20336;-75
2021/01/21 09:52:40;;;;;;;24.20;11.03;;;;;;;;;;5091849;28;20227;-75
2021/01/21 09:55:44;;;;;;;18.20;9.13;;;;;;;;;;5080803;28;20689;-75
2021/01/21 09:58:49;;;;;;;21.73;10.13;;;;;;;;;;5079376;28;20742;-75
2021/01/21 10:01:55;;;;;;;24.23;10.60;;;;;;;;;;5079552;28;20608;-75
2021/01/21 10:04:59;;;;;;;22.90;10.73;;;;;;;;;;5091912;28;20229;-73
2021/01/21 10:08:04;;;;;;;24.97;10.73;;;;;;;;;;5079066;28;20325;-74
2021/01/21 10:11:09;;;;;;;21.20;10.57;;;;;;;;;;5079220;28;20685;-74
2021/01/21 10:14:14;;;;;;;22.70;11.07;;;;;;;;;;5079017;28;20404;-74
2021/01/21 10:17:19;;;;;;;25.83;12.40;;;;;;;;;;5079270;28;20193;-74
2021/01/21 10:20:23;;;;;;;26.77;12.00;;;;;;;;;;5078779;28;20213;-74
2021/01/21 10:23:28;;;;;;;24.17;11.37;;;;;;;;;;5079251;28;20217;-72
2021/01/21 10:26:33;;;;;;;26.13;11.87;;;;;;;;;;5079733;28;20220;-72
2021/01/21 10:29:38;;;;;;;23.60;11.90;;;;;;;;;;5080147;28;20248;-73
2021/01/21 10:32:43;;;;;;;22.43;11.23;;;;;;;;;;5078928;28;20261;-72
2021/01/21 10:35:48;;;;;;;25.73;11.50;;;;;;;;;;5079134;28;20298;-72
2021/01/21 10:38:52;;;;;;;26.67;12.57;;;;;;;;;;5078923;28;20220;-73
2021/01/21 10:41:57;;;;;;;26.30;12.63;;;;;;;;;;5078958;28;20331;-74
2021/01/21 10:45:01;;;;;;;22.90;11.90;;;;;;;;;;5091305;28;20577;-73
2021/01/21 10:48:08;;;;;;;25.37;11.57;;;;;;;;;;5078458;28;20321;-73
2021/01/21 10:51:12;;;;;;;23.33;11.60;;;;;;;;;;5083469;28;20247;-73
2021/01/21 10:54:16;;;;;;;23.83;11.90;;;;;;;;;;5082768;28;20620;-73
2021/01/21 10:57:21;;;;;;;22.57;10.37;;;;;;;;;;5082616;28;20236;-72
2021/01/21 11:00:30;;;;;;;19.43;10.83;;;;;;;;;;5083466;28;20208;-72
2021/01/21 11:03:39;;;;;;;25.90;12.47;;;;;;;;;;5099841;28;20301;-72
2021/01/21 11:06:44;;;;;;;29.83;11.23;;;;;;;;;;5093144;28;20629;-72
2021/01/21 11:09:49;;;;;;;24.03;11.53;;;;;;;;;;5105195;28;20197;-74
2021/01/21 11:12:54;;;;;;;31.57;16.23;;;;;;;;;;5092602;28;20268;-74
2021/01/21 11:15:58;;;;;;;25.10;12.80;;;;;;;;;;5097245;28;20213;-73
2021/01/21 11:19:04;;;;;;;24.87;11.50;;;;;;;;;;5120458;27;20270;-74
2021/01/21 11:22:10;;;;;;;21.80;11.50;;;;;;;;;;5083009;28;20323;-74
2021/01/21 11:25:15;;;;;;;26.70;12.73;;;;;;;;;;5091933;28;20208;-74
2021/01/21 11:28:21;;;;;;;23.37;12.30;;;;;;;;;;5115260;28;20229;-74
2021/01/21 11:31:25;;;;;;;27.10;12.10;;;;;;;;;;5089560;28;20218;-74
2021/01/21 11:34:31;;;;;;;22.27;11.70;;;;;;;;;;5082954;28;20210;-74
2021/01/21 11:37:36;;;;;;;26.87;12.27;;;;;;;;;;5088322;28;20237;-74
2021/01/21 11:40:45;;;;;;;27.07;13.20;;;;;;;;;;5087199;28;20627;-74
2021/01/21 11:43:53;;;;;;;32.23;13.57;;;;;;;;;;5100193;28;20205;-74
2021/01/21 11:46:58;;;;;;;31.40;14.00;;;;;;;;;;5100444;27;20355;-74
2021/01/21 11:50:04;;;;;;;25.17;12.67;;;;;;;;;;5094705;28;20267;-74
2021/01/21 11:53:09;;;;;;;160.87;66.07;;;;;;;;;;5097309;28;20306;-73
2021/01/21 11:56:13;;;;;;;37.07;15.90;;;;;;;;;;5122189;28;20340;-75
2021/01/21 11:59:18;;;;;;;28.77;14.43;;;;;;;;;;5080520;28;20607;-74
2021/01/21 12:02:23;;;;;;;29.00;13.73;;;;;;;;;;5092735;28;20236;-76
2021/01/21 12:05:28;;;;;;;31.67;13.67;;;;;;;;;;5098085;28;20281;-75
2021/01/21 12:08:33;;;;;;;29.30;13.80;;;;;;;;;;5095516;28;20222;-76
2021/01/21 12:11:37;;;;;;;34.90;16.13;;;;;;;;;;5090035;28;20233;-75
2021/01/21 12:14:42;;;;;;;31.83;14.80;;;;;;;;;;5080689;28;20198;-75
2021/01/21 12:17:47;;;;;;;32.60;14.33;;;;;;;;;;5080559;28;20622;-75
2021/01/21 12:20:54;;;;;;;34.43;15.37;;;;;;;;;;5092637;28;20259;-75
2021/01/21 12:23:59;;;;;;;34.03;15.43;;;;;;;;;;5080800;28;20201;-75
2021/01/21 12:27:03;;;;;;;33.80;16.20;;;;;;;;;;5080689;28;20220;-75
2021/01/21 12:30:08;;;;;;;30.03;15.00;;;;;;;;;;5080154;28;20684;-74
2021/01/21 12:33:13;;;;;;;40.67;16.40;;;;;;;;;;5080383;28;20229;-75
2021/01/21 12:36:18;;;;;;;35.63;16.03;;;;;;;;;;5080330;28;20237;-75
2021/01/21 12:39:22;;;;;;;39.70;18.90;;;;;;;;;;5080300;28;20244;-73
2021/01/21 12:42:27;;;;;;;29.77;13.97;;;;;;;;;;5079769;28;20353;-74
2021/01/21 12:45:32;;;;;;;29.17;15.07;;;;;;;;;;5052178;28;779428;-74
2021/01/21 12:48:36;;;;;;;31.30;14.57;;;;;;;;;;5080411;28;20669;-73
2021/01/21 12:51:42;;;;;;;33.27;14.33;;;;;;;;;;5080631;28;20237;-74
2021/01/21 12:54:48;;;;;;;31.60;15.30;;;;;;;;;;5081039;28;20213;-74
2021/01/21 12:57:52;;;;;;;32.43;14.47;;;;;;;;;;5080584;28;20209;-75
2021/01/21 13:00:57;;;;;;;30.27;13.90;;;;;;;;;;5080596;28;20255;-75
2021/01/21 13:04:02;;;;;;;32.40;14.50;;;;;;;;;;5080780;28;20208;-75
2021/01/21 13:07:11;;;;;;;34.50;15.43;;;;;;;;;;5081163;28;20209;-75
2021/01/21 13:10:16;;;;;;;31.07;15.40;;;;;;;;;;5080571;28;20289;-75
2021/01/21 13:13:20;;;;;;;30.60;14.93;;;;;;;;;;5093153;28;20305;-76
2021/01/21 13:16:25;;;;;;;33.60;15.07;;;;;;;;;;5081972;28;20209;-75
2021/01/21 13:19:34;;;;;;;30.87;13.67;;;;;;;;;;5093545;28;20709;-75
2021/01/21 13:22:39;;;;;;;30.10;14.93;;;;;;;;;;5093668;28;20233;-75
2021/01/21 13:25:44;;;;;;;31.23;13.60;;;;;;;;;;5086510;28;20186;-75
2021/01/21 13:28:49;;;;;;;36.23;14.03;;;;;;;;;;5086496;28;20236;-75
2021/01/21 13:31:54;;;;;;;31.50;13.93;;;;;;;;;;5085154;28;20225;-74
2021/01/21 13:34:59;;;;;;;30.47;13.60;;;;;;;;;;5079727;28;20201;-75
2021/01/21 13:38:04;;;;;;;30.90;13.90;;;;;;;;;;5080081;28;20258;-74
2021/01/21 13:41:10;;;;;;;29.37;13.50;;;;;;;;;;5079782;28;20255;-74
2021/01/21 13:44:14;;;;;;;36.30;16.63;;;;;;;;;;5079951;28;20202;-75
2021/01/21 13:47:19;;;;;;;53.50;22.70;;;;;;;;;;5080221;28;20212;-75
2021/01/21 13:50:24;;;;;;;50.30;20.47;;;;;;;;;;5080277;28;20202;-75
2021/01/21 13:53:29;;;;;;;39.00;17.17;;;;;;;;;;5083180;28;20309;-75
2021/01/21 13:56:34;;;;;;;39.30;16.70;;;;;;;;;;5080476;28;20714;-74
2021/01/21 13:59:39;;;;;;;39.80;17.00;;;;;;;;;;5079935;28;20200;-75
2021/01/21 14:02:43;;;;;;;33.03;14.57;;;;;;;;;;5088530;28;20225;-75
2021/01/21 14:05:48;;;;;;;37.33;17.03;;;;;;;;;;5092687;28;20250;-74
2021/01/21 14:08:56;;;;;;;33.40;15.93;;;;;;;;;;5099055;28;20217;-75
2021/01/21 14:12:01;;;;;;;35.80;16.27;;;;;;;;;;5120486;27;20274;-75
2021/01/21 14:15:07;;;;;;;38.67;15.90;;;;;;;;;;5088157;28;20197;-73
2021/01/21 14:18:11;;;;;;;47.47;16.93;;;;;;;;;;5088322;28;20340;-73
2021/01/21 14:21:16;;;;;;;36.73;16.43;;;;;;;;;;5088723;28;20259;-74
2021/01/21 14:24:21;;;;;;;41.87;16.57;;;;;;;;;;5086879;28;20200;-73
2021/01/21 14:27:26;;;;;;;36.00;16.20;;;;;;;;;;5097517;28;20242;-73
2021/01/21 14:30:30;;;;;;;41.17;16.33;;;;;;;;;;5090368;28;20253;-74
2021/01/21 14:33:35;;;;;;;37.47;16.33;;;;;;;;;;5097070;28;20244;-73
2021/01/21 14:36:40;;;;;;;39.37;17.47;;;;;;;;;;5078893;28;20260;-73
2021/01/21 14:39:45;;;;;;;40.00;17.93;;;;;;;;;;5086752;28;20258;-73
2021/01/21 14:42:50;;;;;;;36.00;16.57;;;;;;;;;;5091577;28;20266;-73
2021/01/21 14:45:55;;;;;;;50.53;23.20;;;;;;;;;;5079763;28;20649;-76
2021/01/21 14:48:59;;;;;;;46.67;20.53;;;;;;;;;;5095274;28;20237;-75
2021/01/21 14:52:04;;;;;;;47.90;19.27;;;;;;;;;;5098752;28;20297;-75
2021/01/21 14:55:12;;;;;;;44.40;20.37;;;;;;;;;;5100609;28;20197;-74
2021/01/21 14:58:17;;;;;;;45.83;20.53;;;;;;;;;;5099433;28;20204;-74
2021/01/21 15:01:22;;;;;;;41.23;19.87;;;;;;;;;;5102566;28;20224;-75
2021/01/21 15:04:26;;;;;;;42.60;18.37;;;;;;;;;;5108008;28;20209;-74
2021/01/21 15:07:31;;;;;;;45.53;19.60;;;;;;;;;;5097878;28;20262;-74
2021/01/21 15:10:37;;;;;;;42.83;18.93;;;;;;;;;;5100729;28;20233;-74
2021/01/21 15:13:41;;;;;;;47.67;19.67;;;;;;;;;;5105106;28;20216;-73
2021/01/21 15:16:46;;;;;;;45.30;19.90;;;;;;;;;;5099266;28;20217;-73
2021/01/21 15:19:50;;;;;;;62.27;24.27;;;;;;;;;;5102280;28;20584;-72
2021/01/21 15:22:55;;;;;;;58.80;24.20;;;;;;;;;;5097751;28;20581;-74
2021/01/21 15:26:01;;;;;;;65.20;25.00;;;;;;;;;;5097480;28;20213;-72
2021/01/21 15:29:05;;;;;;;71.87;27.83;;;;;;;;;;5097833;28;20225;-73
2021/01/21 15:32:10;;;;;;;56.83;23.20;;;;;;;;;;5096236;28;20240;-73
2021/01/21 15:35:15;;;;;;;52.80;23.00;;;;;;;;;;5099167;28;20798;-73
2021/01/21 15:38:19;;;;;;;51.47;22.40;;;;;;;;;;5102367;28;20285;-72
2021/01/21 15:41:25;;;;;;;63.03;25.00;;;;;;;;;;5101653;28;20204;-73
2021/01/21 15:44:34;;;;;;;59.13;25.10;;;;;;;;;;5101166;28;20196;-74
2021/01/21 15:47:39;;;;;;;42.07;18.37;;;;;;;;;;5101693;28;20706;-73
2021/01/21 15:50:43;;;;;;;44.33;19.10;;;;;;;;;;5102051;28;20270;-75
2021/01/21 15:53:48;;;;;;;46.23;19.73;;;;;;;;;;5117637;27;20228;-75
2021/01/21 15:56:54;;;;;;;46.47;20.43;;;;;;;;;;5102598;28;20263;-74
2021/01/21 15:59:59;;;;;;;39.43;16.30;;;;;;;;;;5102302;27;20247;-75
2021/01/21 16:03:04;;;;;;;39.00;16.83;;;;;;;;;;5100582;28;20519;-74
2021/01/21 16:06:09;;;;;;;39.20;15.60;;;;;;;;;;5101044;28;20216;-74
2021/01/21 16:09:14;;;;;;;39.30;16.40;;;;;;;;;;5101584;28;20266;-74
2021/01/21 16:12:20;;;;;;;40.83;17.30;;;;;;;;;;5101941;28;20309;-73
2021/01/21 16:15:25;;;;;;;53.33;17.67;;;;;;;;;;5101898;28;20234;-75
2021/01/21 16:18:29;;;;;;;42.73;16.40;;;;;;;;;;5101663;28;20607;-76
2021/01/21 16:21:34;;;;;;;44.17;17.20;;;;;;;;;;5102318;28;20665;-75
2021/01/21 16:24:39;;;;;;;57.00;20.70;;;;;;;;;;5116079;28;20262;-74
2021/01/21 16:27:45;;;;;;;50.20;19.93;;;;;;;;;;5101668;28;20220;-75
2021/01/21 16:30:50;;;;;;;49.23;19.17;;;;;;;;;;5101309;28;20363;-75
2021/01/21 16:33:55;;;;;;;40.07;17.30;;;;;;;;;;5101863;28;20204;-76
2021/01/21 16:37:00;;;;;;;48.50;19.13;;;;;;;;;;5101513;28;20197;-75
2021/01/21 16:40:05;;;;;;;49.87;21.50;;;;;;;;;;5100507;28;20573;-75
2021/01/21 16:43:10;;;;;;;53.43;21.87;;;;;;;;;;5090463;28;20228;-75
2021/01/21 16:46:15;;;;;;;46.70;20.30;;;;;;;;;;5098794;28;20275;-76
2021/01/21 16:49:20;;;;;;;43.70;19.97;;;;;;;;;;5080967;28;20640;-76
2021/01/21 16:52:25;;;;;;;50.57;21.80;;;;;;;;;;5080602;28;20221;-75
2021/01/21 16:55:29;;;;;;;48.80;21.03;;;;;;;;;;5097469;28;20205;-74
2021/01/21 16:58:34;;;;;;;48.23;19.70;;;;;;;;;;5081027;28;20284;-74
2021/01/21 17:01:39;;;;;;;46.93;20.10;;;;;;;;;;5081831;28;20317;-75
2021/01/21 17:04:43;;;;;;;50.07;22.13;;;;;;;;;;5097466;28;20237;-76
2021/01/21 17:07:48;;;;;;;49.13;21.20;;;;;;;;;;5096744;28;20240;-74
2021/01/21 17:10:53;;;;;;;42.87;20.20;;;;;;;;;;5096797;28;20232;-75
2021/01/21 17:13:59;;;;;;;48.60;20.77;;;;;;;;;;5081402;28;20238;-76
2021/01/21 17:17:04;;;;;;;54.67;23.47;;;;;;;;;;5089714;28;20581;-76
2021/01/21 17:20:10;;;;;;;55.27;24.03;;;;;;;;;;5081626;28;20224;-76
2021/01/21 17:23:15;;;;;;;54.27;24.07;;;;;;;;;;5106871;28;20232;-75
2021/01/21 17:26:21;;;;;;;56.87;24.23;;;;;;;;;;5080568;28;20295;-76
2021/01/21 17:29:27;;;;;;;56.77;22.67;;;;;;;;;;5096709;28;20229;-75
2021/01/21 17:32:31;;;;;;;47.50;21.03;;;;;;;;;;5094324;28;20684;-74
2021/01/21 17:35:41;;;;;;;50.17;21.47;;;;;;;;;;5096018;28;20300;-74
2021/01/21 17:38:48;;;;;;;55.57;23.60;;;;;;;;;;5113152;28;20193;-74
2021/01/21 17:41:52;;;;;;;52.20;22.83;;;;;;;;;;5088473;28;20735;-73
2021/01/21 17:44:59;;;;;;;48.20;21.97;;;;;;;;;;5095643;27;20289;-73
2021/01/21 17:48:04;;;;;;;46.90;21.00;;;;;;;;;;5105478;28;20268;-73
2021/01/21 17:51:10;;;;;;;49.20;21.83;;;;;;;;;;5089305;28;20354;-74
2021/01/21 17:54:15;;;;;;;54.70;23.50;;;;;;;;;;5099319;28;20262;-74
2021/01/21 17:57:20;;;;;;;48.17;21.13;;;;;;;;;;5099039;28;20254;-76
2021/01/21 18:00:26;;;;;;;48.20;20.53;;;;;;;;;;5099664;28;20201;-76
2021/01/21 18:03:31;;;;;;;49.13;21.83;;;;;;;;;;5099304;28;20262;-74
2021/01/21 18:06:36;;;;;;;55.67;24.43;;;;;;;;;;5099734;28;20624;-75
2021/01/21 18:09:41;;;;;;;59.07;26.17;;;;;;;;;;5090635;28;20308;-74
2021/01/21 18:12:46;;;;;;;60.50;25.03;;;;;;;;;;5079092;28;20271;-74